Time;durP1;ratioP1;P1;durP2;ratioP2;P2;SDS_P1;SDS_P2;PMS_P1;PMS_P2;Temp;Humidity;BMP_temperature;BMP_pressure;BME280_temperature;BME280_humidity;BME280_pressure;Samples;Min_cycle;Max_cycle;Signal;HPM_P1;HPM_P2
2023/07/22 00:01:45;;;;;;;6.70;3.70;;;;;;;17.45;100.00;99755.96;182421;1234;46120;-83
2023/07/22 00:05:47;;;;;;;5.30;4.10;;;;;;;17.36;100.00;99758.37;182681;1233;59749;-82
2023/07/22 00:09:50;;;;;;;6.20;5.20;;;;;;;17.19;100.00;99757.11;182582;1233;45880;-82
2023/07/22 00:13:52;;;;;;;8.90;5.10;;;;;;;17.11;100.00;99763.44;182345;1233;46205;-82
2023/07/22 00:17:53;;;;;;;4.90;3.90;;;;;;;17.20;100.00;99769.36;182733;1234;46085;-82
2023/07/22 00:21:55;;;;;;;5.80;4.40;;;;;;;17.31;100.00;99769.23;182522;1235;46081;-82
2023/07/22 00:25:57;;;;;;;7.70;4.50;;;;;;;17.34;100.00;99773.84;183043;1235;59287;-82
2023/07/22 00:29:59;;;;;;;7.00;6.00;;;;;;;17.35;100.00;99782.33;182952;1235;46096;-82
2023/07/22 00:34:00;;;;;;;7.20;5.40;;;;;;;17.38;100.00;99788.86;182952;1235;46334;-83
2023/07/22 00:38:03;;;;;;;5.70;5.10;;;;;;;17.37;100.00;99795.91;183130;1234;43939;-83
2023/07/22 00:42:08;;;;;;;7.50;5.90;;;;;;;17.35;100.00;99790.27;182713;1234;45999;-83
2023/07/22 00:46:09;;;;;;;5.80;5.20;;;;;;;17.35;100.00;99788.83;182987;1236;58085;-83
2023/07/22 00:50:12;;;;;;;6.00;5.40;;;;;;;17.33;100.00;99782.77;182667;1234;45976;-83
2023/07/22 00:54:14;;;;;;;8.10;6.00;;;;;;;17.29;100.00;99779.99;182691;1237;46167;-83
2023/07/22 00:58:16;;;;;;;9.90;4.40;;;;;;;17.26;100.00;99776.77;182841;1232;45971;-83
2023/07/22 01:02:19;;;;;;;6.60;5.20;;;;;;;17.19;100.00;99780.09;182327;1233;46001;-83
2023/07/22 01:06:22;;;;;;;6.00;5.40;;;;;;;17.14;100.00;99780.55;182400;1235;58748;-83
2023/07/22 01:10:23;;;;;;;5.80;3.70;;;;;;;17.08;100.00;99783.75;182727;1233;46088;-82
2023/07/22 01:14:26;;;;;;;6.20;4.60;;;;;;;17.03;100.00;99783.92;182313;1235;46205;-83
2023/07/22 01:18:27;;;;;;;6.20;5.40;;;;;;;16.76;100.00;99784.54;182310;1232;46099;-83
2023/07/22 01:22:30;;;;;;;11.90;5.10;;;;;;;16.54;100.00;99784.30;182718;1234;45985;-83
2023/07/22 01:26:31;;;;;;;8.90;7.40;;;;;;;16.49;100.00;99779.33;182917;1234;59501;-82
2023/07/22 01:30:33;;;;;;;11.00;5.70;;;;;;;16.53;100.00;99777.13;182721;1234;44910;-83
2023/07/22 01:34:35;;;;;;;5.80;5.10;;;;;;;16.59;100.00;99778.36;182893;1234;44249;-83
2023/07/22 01:38:36;;;;;;;7.00;5.60;;;;;;;16.66;100.00;99783.89;183153;1234;46091;-82
2023/07/22 01:42:39;;;;;;;6.30;4.80;;;;;;;16.70;100.00;99786.11;182531;1233;46203;-83
2023/07/22 01:46:41;;;;;;;6.80;5.10;;;;;;;16.74;100.00;99786.98;182612;1234;57961;-83
2023/07/22 01:50:43;;;;;;;5.20;4.60;;;;;;;16.76;100.00;99789.24;182745;1233;45982;-83
2023/07/22 01:54:45;;;;;;;7.50;4.80;;;;;;;16.78;100.00;99792.38;182646;1234;46073;-83
2023/07/22 01:58:47;;;;;;;5.00;4.30;;;;;;;16.80;100.00;99795.58;183587;1234;46155;-82
2023/07/22 02:02:48;;;;;;;6.90;5.90;;;;;;;16.84;100.00;99796.89;182843;1233;44117;-83
2023/07/22 02:06:50;;;;;;;7.20;4.80;;;;;;;16.92;100.00;99794.36;183091;1233;59925;-83
2023/07/22 02:10:52;;;;;;;4.70;4.30;;;;;;;16.97;100.00;99794.63;182805;1233;46093;-83
2023/07/22 02:14:54;;;;;;;8.10;5.60;;;;;;;17.01;100.00;99794.95;182458;1233;46103;-83
2023/07/22 02:18:56;;;;;;;8.40;4.80;;;;;;;16.99;100.00;99796.58;182327;1237;46040;-83
2023/07/22 02:22:58;;;;;;;6.10;5.20;;;;;;;17.01;100.00;99796.16;182687;1237;45883;-83
2023/07/22 02:27:01;;;;;;;5.30;4.80;;;;;;;17.06;100.00;99795.28;182617;1236;57989;-83
2023/07/22 02:31:07;;;;;;;5.30;4.80;;;;;;;17.06;100.00;99797.20;182170;1235;45947;-83
2023/07/22 02:35:09;;;;;;;5.70;4.60;;;;;;;17.06;100.00;99808.64;182718;1235;46071;-83
2023/07/22 02:39:11;;;;;;;5.80;4.00;;;;;;;17.01;100.00;99809.76;183012;1234;45881;-83
2023/07/22 02:43:13;;;;;;;5.10;4.00;;;;;;;16.95;100.00;99813.64;183023;1234;45992;-83
2023/07/22 02:47:15;;;;;;;5.50;4.30;;;;;;;16.86;100.00;99817.95;182682;1234;59303;-83
2023/07/22 02:51:17;;;;;;;5.80;3.70;;;;;;;16.78;100.00;99817.02;182260;1237;46206;-83
2023/07/22 02:55:18;;;;;;;6.30;3.30;;;;;;;16.71;100.00;99821.96;182574;1232;46046;-83
2023/07/22 02:59:20;;;;;;;8.40;4.30;;;;;;;16.67;100.00;99826.73;182862;1232;46078;-83
2023/07/22 03:03:22;;;;;;;8.20;5.50;;;;;;;16.62;100.00;99828.89;183120;1232;45968;-83
2023/07/22 03:07:26;;;;;;;7.30;3.60;;;;;;;16.55;100.00;99831.83;182685;1237;57844;-83
2023/07/22 03:11:27;;;;;;;4.70;3.80;;;;;;;16.49;100.00;99839.50;183394;1233;46145;-83
2023/07/22 03:15:30;;;;;;;6.40;3.80;;;;;;;16.41;100.00;99845.41;184415;1233;44130;-83
2023/07/22 03:19:32;;;;;;;5.60;3.70;;;;;;;16.38;100.00;99844.45;183407;1233;46132;-83
2023/07/22 03:23:33;;;;;;;6.10;3.40;;;;;;;16.40;100.00;99846.92;183082;1236;46070;-83
2023/07/22 03:27:35;;;;;;;7.50;5.20;;;;;;;16.39;100.00;99848.84;182269;1233;58084;-83
2023/07/22 03:31:37;;;;;;;4.10;3.60;;;;;;;16.39;100.00;99854.24;183072;1234;46170;-83
2023/07/22 03:35:39;;;;;;;6.30;3.00;;;;;;;16.37;100.00;99857.16;182684;1233;46013;-83
2023/07/22 03:39:43;;;;;;;9.10;3.80;;;;;;;16.38;100.00;99854.52;183525;1234;46206;-82
2023/07/22 03:43:45;;;;;;;5.30;3.60;;;;;;;16.38;100.00;99859.21;183061;1232;46008;-83
2023/07/22 03:47:50;;;;;;;14.10;4.10;;;;;;;16.33;100.00;99857.56;182496;1236;58659;-82
2023/07/22 03:51:52;;;;;;;6.10;3.70;;;;;;;16.40;100.00;99857.70;182558;1233;46030;-82
2023/07/22 03:55:54;;;;;;;8.20;3.10;;;;;;;16.48;100.00;99856.82;183028;1234;45897;-82
2023/07/22 03:59:56;;;;;;;16.30;4.20;;;;;;;16.56;100.00;99859.60;182647;1233;46036;-82
2023/07/22 04:03:57;;;;;;;8.10;3.40;;;;;;;16.67;100.00;99866.76;182797;1232;45874;-82
2023/07/22 04:07:59;;;;;;;5.60;3.10;;;;;;;16.76;100.00;99875.44;183192;1233;59109;-82
2023/07/22 04:12:01;;;;;;;8.00;3.50;;;;;;;16.84;100.00;99873.52;182620;1232;46474;-83
2023/07/22 04:16:03;;;;;;;4.50;2.90;;;;;;;16.90;100.00;99873.17;182671;1233;46200;-82
2023/07/22 04:20:07;;;;;;;9.30;4.00;;;;;;;17.03;100.00;99876.71;182878;1234;46122;-83
2023/07/22 04:24:10;;;;;;;6.30;3.50;;;;;;;17.24;100.00;99879.45;182621;1233;46066;-83
2023/07/22 04:28:12;;;;;;;5.90;2.70;;;;;;;17.75;100.00;99877.48;182509;1234;57387;-82
2023/07/22 04:32:14;;;;;;;5.40;2.70;;;;;;;18.40;100.00;99885.02;183169;1236;46094;-82
2023/07/22 04:36:16;;;;;;;5.40;3.30;;;;;;;19.11;98.97;99892.38;183671;1232;45958;-83
2023/07/22 04:40:19;;;;;;;5.60;3.00;;;;;;;19.70;93.82;99895.29;183588;1236;46088;-82
2023/07/22 04:44:21;;;;;;;4.70;2.80;;;;;;;20.21;89.99;99894.80;183473;1237;46136;-82
2023/07/22 04:48:23;;;;;;;7.00;3.70;;;;;;;20.59;86.70;99893.12;183590;1236;59416;-83
2023/07/22 04:52:25;;;;;;;7.90;3.60;;;;;;;21.08;84.43;99892.33;183396;1234;46124;-83
2023/07/22 04:56:27;;;;;;;5.70;3.00;;;;;;;21.57;81.96;99896.91;183370;1236;46016;-83
2023/07/22 05:00:29;;;;;;;4.10;2.80;;;;;;;21.92;79.85;99903.73;183693;1233;45892;-83
2023/07/22 05:04:31;;;;;;;6.30;3.00;;;;;;;22.09;77.86;99902.00;183737;1233;44305;-82
2023/07/22 05:08:33;;;;;;;5.80;3.00;;;;;;;22.33;77.32;99910.92;184070;1233;59982;-82
2023/07/22 05:12:35;;;;;;;11.20;2.80;;;;;;;22.51;76.32;99912.52;183844;1236;46446;-82
2023/07/22 05:16:36;;;;;;;8.00;3.10;;;;;;;22.49;74.64;99918.16;184092;1233;46196;-82
2023/07/22 05:20:39;;;;;;;1.90;1.60;;;;;;;22.38;74.75;99921.36;183954;1233;44721;-83
2023/07/22 05:24:41;;;;;;;3.10;2.30;;;;;;;22.29;74.29;99921.26;184075;1234;44423;-83
2023/07/22 05:28:42;;;;;;;6.70;2.40;;;;;;;22.00;75.11;99927.21;183802;1234;59799;-82
2023/07/22 05:32:44;;;;;;;5.30;3.20;;;;;;;22.04;75.57;99924.75;184227;1232;44730;-82
2023/07/22 05:36:46;;;;;;;3.40;2.70;;;;;;;21.86;75.64;99935.63;184327;1233;45963;-81
2023/07/22 05:40:48;;;;;;;10.30;3.50;;;;;;;21.71;76.22;99936.89;184315;1233;45957;-83
2023/07/22 05:44:50;;;;;;;3.20;2.50;;;;;;;21.76;76.57;99934.97;184227;1233;45868;-83
2023/07/22 05:48:52;;;;;;;3.00;2.70;;;;;;;21.68;76.43;99940.16;184796;1235;58138;-83
2023/07/22 05:52:54;;;;;;;3.30;3.00;;;;;;;21.70;76.15;99941.13;183768;1233;46071;-82
2023/07/22 05:56:55;;;;;;;3.70;3.40;;;;;;;21.93;76.68;99954.04;184099;1233;45971;-82
2023/07/22 06:00:57;;;;;;;7.60;4.10;;;;;;;21.77;75.69;99954.45;184113;1233;46086;-82
2023/07/22 06:04:59;;;;;;;3.60;2.70;;;;;;;21.36;76.65;99951.59;184049;1236;46034;-82
2023/07/22 06:09:01;;;;;;;7.40;4.50;;;;;;;20.90;78.38;99956.02;183817;1235;58333;-83
2023/07/22 06:13:04;;;;;;;4.40;3.00;;;;;;;20.86;78.30;99954.36;183415;1233;45842;-82
2023/07/22 06:17:07;;;;;;;3.50;2.30;;;;;;;20.76;77.75;99964.95;183472;1233;45981;-83
2023/07/22 06:21:09;;;;;;;4.10;2.60;;;;;;;20.58;79.57;99979.57;183266;1234;45974;-86
2023/07/22 06:25:11;;;;;;;3.50;3.10;;;;;;;20.29;81.09;99979.14;183181;1233;46087;-83
2023/07/22 06:29:13;;;;;;;5.10;3.30;;;;;;;20.27;81.13;99977.27;183108;1232;58028;-83
2023/07/22 06:33:16;;;;;;;3.80;3.10;;;;;;;19.83;83.54;99985.83;183569;1234;44687;-83
2023/07/22 06:37:17;;;;;;;10.20;3.90;;;;;;;19.65;84.18;99983.05;183403;1233;46058;-81
2023/07/22 06:41:19;;;;;;;5.20;3.40;;;;;;;19.52;84.44;99993.42;182908;1234;46024;-81
2023/07/22 06:45:21;;;;;;;4.40;2.60;;;;;;;19.36;85.29;99997.40;183292;1236;45969;-82
2023/07/22 06:49:23;;;;;;;4.10;2.80;;;;;;;19.50;85.06;99999.28;183329;1236;280522;-83
2023/07/22 06:53:25;;;;;;;7.30;3.20;;;;;;;19.70;83.62;100000.41;182944;1233;46013;-83
2023/07/22 06:57:27;;;;;;;6.20;2.70;;;;;;;19.74;82.40;100001.35;185247;1236;45951;-83
2023/07/22 07:01:28;;;;;;;4.90;3.30;;;;;;;20.04;81.03;100001.84;183680;1234;46077;-83
2023/07/22 07:05:30;;;;;;;4.30;3.00;;;;;;;20.35;79.44;100007.48;183160;1234;46080;-83
2023/07/22 07:09:32;;;;;;;4.90;2.40;;;;;;;20.36;78.72;100009.64;183696;1232;57993;-83
2023/07/22 07:13:34;;;;;;;5.50;2.80;;;;;;;20.67;77.17;100008.09;182970;1234;45970;-83
2023/07/22 07:17:35;;;;;;;3.90;2.40;;;;;;;20.80;74.10;100011.22;183069;1233;46100;-83
2023/07/22 07:21:37;;;;;;;3.80;1.70;;;;;;;21.08;73.22;100017.34;183513;1236;46053;-83
2023/07/22 07:25:39;;;;;;;6.20;2.60;;;;;;;21.45;70.86;100016.77;183840;1233;44762;-83
2023/07/22 07:29:41;;;;;;;2.30;2.10;;;;;;;21.38;71.57;100013.87;183536;1232;58114;-83
2023/07/22 07:33:55;;;;;;;5.60;2.60;;;;;;;21.40;70.37;100008.25;183757;1234;46085;-83
2023/07/22 07:37:57;;;;;;;5.10;1.70;;;;;;;20.83;71.57;100028.14;183603;1232;44547;-83
2023/07/22 07:41:59;;;;;;;2.00;1.80;;;;;;;20.93;72.46;100025.20;183483;1233;45989;-83
2023/07/22 07:46:25;;;;;;;4.80;1.50;;;;;;;20.99;72.68;100035.77;183679;1233;46084;-83
2023/07/22 07:50:27;;;;;;;4.80;2.20;;;;;;;20.98;71.72;100027.75;183778;1233;60452;-83
2023/07/22 07:54:29;;;;;;;3.90;2.20;;;;;;;20.85;71.43;100039.39;183949;1234;46016;-83
2023/07/22 07:58:35;;;;;;;;;;;;;;;21.07;70.01;100031.19;184860;1233;44732;-83
2023/07/22 08:02:39;;;;;;;2.40;2.00;;;;;;;21.41;68.96;100029.05;184238;1234;43736;-83
2023/07/22 08:06:42;;;;;;;5.40;1.90;;;;;;;21.82;68.50;100029.48;184248;1235;44020;-83
2023/07/22 08:10:59;;;;;;;2.40;1.90;;;;;;;22.19;67.51;100029.75;184085;1233;56885;-83
2023/07/22 08:15:01;;;;;;;;;;;;;;;21.84;66.42;100027.39;184533;1234;45879;-83
2023/07/22 08:19:05;;;;;;;3.30;2.50;;;;;;;21.93;67.63;100033.60;184020;1235;45900;-83
2023/07/22 08:23:09;;;;;;;4.00;1.50;;;;;;;21.58;66.45;100035.45;184057;1236;44681;-82
2023/07/22 08:27:11;;;;;;;5.60;2.20;;;;;;;21.41;68.06;100042.80;184179;1236;45993;-83
2023/07/22 08:31:12;;;;;;;2.10;1.90;;;;;;;21.57;67.49;100046.98;183860;1234;58134;-83
2023/07/22 08:35:17;;;;;;;2.20;1.80;;;;;;;21.94;64.75;100045.55;184457;1233;46096;-83
2023/07/22 08:39:19;;;;;;;2.90;1.90;;;;;;;21.87;64.97;100049.67;183764;1236;46177;-83
2023/07/22 08:43:22;;;;;;;3.00;2.30;;;;;;;21.93;64.94;100052.39;183725;1237;45916;-83
2023/07/22 08:47:25;;;;;;;2.90;2.70;;;;;;;21.70;65.86;100059.77;184233;1233;44481;-83
2023/07/22 08:51:29;;;;;;;5.40;2.90;;;;;;;21.51;64.56;100049.20;184324;1237;57483;-83
2023/07/22 08:55:31;;;;;;;3.00;2.50;;;;;;;21.63;64.29;100048.96;183470;1233;46092;-83
2023/07/22 08:59:33;;;;;;;5.70;2.70;;;;;;;21.88;64.14;100056.80;183904;1235;44609;-83
2023/07/22 09:03:35;;;;;;;5.30;2.90;;;;;;;22.13;62.67;100055.11;183931;1235;44854;-83
2023/07/22 09:07:39;;;;;;;3.50;1.90;;;;;;;22.37;61.03;100057.33;184189;1234;46744;-83
2023/07/22 09:11:42;;;;;;;4.40;3.40;;;;;;;22.63;60.23;100055.78;184270;1234;58778;-83
2023/07/22 09:15:45;;;;;;;3.00;2.00;;;;;;;22.90;59.58;100051.58;184098;1234;46147;-83
2023/07/22 09:19:52;;;;;;;2.50;2.20;;;;;;;23.27;58.10;100045.16;184196;1232;45969;-83
2023/07/22 09:23:54;;;;;;;3.60;1.70;;;;;;;23.39;57.77;100044.78;185098;1234;45411;-83
2023/07/22 09:28:00;;;;;;;4.10;2.00;;;;;;;23.57;57.60;100042.19;184661;1237;46136;-83
2023/07/22 09:32:03;;;;;;;4.00;1.90;;;;;;;23.33;56.15;100047.77;184250;1233;58058;-83
2023/07/22 09:36:05;;;;;;;3.60;2.00;;;;;;;23.18;56.59;100052.95;184686;1233;46005;-83
2023/07/22 09:40:22;;;;;;;3.10;1.90;;;;;;;23.30;56.16;100049.71;184105;1232;46083;-83
2023/07/22 09:44:29;;;;;;;8.10;3.10;;;;;;;22.81;55.37;100055.32;184623;1236;46070;-83
2023/07/22 09:48:43;;;;;;;5.10;2.50;;;;;;;22.61;56.57;100051.23;184517;1234;45173;-83
2023/07/22 09:53:03;;;;;;;5.50;3.10;;;;;;;22.85;57.02;100045.17;184600;1234;59425;-84
2023/07/22 09:57:06;;;;;;;6.40;2.40;;;;;;;23.14;55.95;100052.01;184393;1234;44151;-83
2023/07/22 10:01:12;;;;;;;2.60;2.10;;;;;;;23.25;54.86;100048.25;185225;1234;44693;-83
2023/07/22 10:05:16;;;;;;;2.10;1.60;;;;;;;23.18;54.87;100050.95;184933;1236;45942;-83
2023/07/22 10:09:22;;;;;;;3.60;1.80;;;;;;;22.88;54.60;100052.54;184589;1234;46022;-83
2023/07/22 10:13:24;;;;;;;6.60;2.60;;;;;;;22.70;55.35;100055.18;184314;1237;59130;-83
2023/07/22 10:17:29;;;;;;;4.60;2.30;;;;;;;23.09;54.17;100050.20;184172;1237;45957;-83
2023/07/22 10:21:32;;;;;;;4.40;2.70;;;;;;;23.51;52.53;100040.04;184442;1234;46103;-84
2023/07/22 10:25:37;;;;;;;3.10;2.20;;;;;;;23.35;52.73;100053.77;184563;1234;45880;-83
2023/07/22 10:29:39;;;;;;;2.40;1.80;;;;;;;22.83;54.27;100055.23;184180;1233;46037;-83
2023/07/22 10:33:42;;;;;;;2.80;1.50;;;;;;;22.60;54.66;100057.28;184412;1232;59342;-83
2023/07/22 10:37:47;;;;;;;2.30;1.60;;;;;;;22.69;52.83;100061.36;183995;1234;46018;-83
2023/07/22 10:41:49;;;;;;;2.80;1.90;;;;;;;22.75;53.16;100061.63;184647;1235;45966;-83
2023/07/22 10:45:54;;;;;;;4.50;2.00;;;;;;;22.79;53.37;100053.83;184237;1234;46112;-83
2023/07/22 10:50:07;;;;;;;2.60;1.80;;;;;;;23.06;50.79;100047.06;184324;1235;46078;-83
2023/07/22 10:54:13;;;;;;;2.30;1.80;;;;;;;23.45;50.83;100040.90;184745;1235;57987;-83
2023/07/22 10:58:15;;;;;;;3.30;2.20;;;;;;;23.66;50.15;100050.23;184586;1235;45954;-83
2023/07/22 11:02:29;;;;;;;3.10;1.80;;;;;;;23.77;50.33;100040.77;184474;1233;46427;-83
2023/07/22 11:06:32;;;;;;;4.20;1.40;;;;;;;24.05;49.72;100046.25;184696;1235;46068;-84
2023/07/22 11:10:34;;;;;;;5.40;1.80;;;;;;;24.33;49.89;100052.02;184470;1233;43816;-83
2023/07/22 11:14:50;;;;;;;3.00;2.40;;;;;;;24.66;49.35;100050.45;184430;1235;57908;-83
2023/07/22 11:18:53;;;;;;;2.70;1.80;;;;;;;24.90;48.79;100046.98;184462;1236;46099;-83
2023/07/22 11:22:57;;;;;;;1.50;1.40;;;;;;;24.72;48.74;100049.15;184818;1235;46189;-83
2023/07/22 11:26:59;;;;;;;1.10;0.90;;;;;;;24.38;46.22;100055.15;184855;1235;43740;-82
2023/07/22 11:31:01;;;;;;;4.30;2.00;;;;;;;24.13;46.16;100039.43;184549;1235;46050;-82
2023/07/22 11:35:03;;;;;;;3.20;1.70;;;;;;;23.98;46.71;100048.80;184460;1236;58079;-82
2023/07/22 11:39:11;;;;;;;3.10;1.90;;;;;;;24.22;47.43;100032.86;184437;1236;45911;-82
2023/07/22 11:43:14;;;;;;;2.60;1.80;;;;;;;24.67;46.66;100032.54;184995;1234;45885;-83
2023/07/22 11:47:16;;;;;;;4.20;1.80;;;;;;;24.91;46.42;100025.13;184853;1233;44294;-83
2023/07/22 11:51:24;;;;;;;2.50;1.20;;;;;;;24.77;45.97;100029.73;184858;1234;46095;-83
2023/07/22 11:55:26;;;;;;;1.90;1.60;;;;;;;24.63;45.84;100037.70;185100;1235;57855;-83
2023/07/22 11:59:44;;;;;;;2.00;1.40;;;;;;;24.90;45.43;100025.91;184907;1235;44225;-83
2023/07/22 12:03:47;;;;;;;2.20;1.30;;;;;;;25.17;45.34;100028.47;184773;1233;43968;-83
2023/07/22 12:07:49;;;;;;;4.50;2.00;;;;;;;25.61;46.27;100025.91;184929;1236;45979;-83
2023/07/22 12:11:59;;;;;;;2.90;1.50;;;;;;;25.77;44.78;100024.27;184883;1234;46075;-84
2023/07/22 12:16:02;;;;;;;2.30;1.60;;;;;;;25.55;44.28;100026.67;185080;1232;58120;-83
2023/07/22 12:20:06;;;;;;;8.10;2.10;;;;;;;25.46;44.90;100017.91;185023;1233;46024;-83
2023/07/22 12:24:08;;;;;;;3.20;2.60;;;;;;;25.06;45.12;100029.56;184824;1235;45968;-83
2023/07/22 12:28:10;;;;;;;8.90;2.60;;;;;;;24.81;46.93;100034.40;184971;1234;46045;-83
2023/07/22 12:32:12;;;;;;;16.10;4.60;;;;;;;24.79;45.43;100037.34;184602;1236;45976;-82
2023/07/22 12:36:15;;;;;;;1.40;1.30;;;;;;;25.01;45.30;100037.48;184763;1236;58713;-82
2023/07/22 12:40:17;;;;;;;4.10;2.30;;;;;;;25.50;45.06;100029.21;185035;1234;45971;-82
2023/07/22 12:44:19;;;;;;;1.90;1.40;;;;;;;25.78;44.95;100028.77;184958;1235;46021;-82
2023/07/22 12:48:21;;;;;;;3.00;1.70;;;;;;;25.60;45.39;100036.08;185160;1236;45640;-82
2023/07/22 12:52:23;;;;;;;3.80;2.30;;;;;;;25.24;45.56;100035.70;185018;1236;46086;-82
2023/07/22 12:56:25;;;;;;;2.20;1.60;;;;;;;24.83;45.90;100042.42;184675;1233;58145;-82
2023/07/22 13:00:28;;;;;;;2.50;1.70;;;;;;;24.47;46.76;100044.06;184590;1234;44862;-82
2023/07/22 13:04:30;;;;;;;2.50;1.30;;;;;;;24.34;47.48;100047.15;184742;1235;45850;-82
2023/07/22 13:08:32;;;;;;;2.20;1.90;;;;;;;24.12;47.08;100043.55;184621;1232;45963;-82
2023/07/22 13:12:33;;;;;;;2.30;2.00;;;;;;;23.89;47.48;100033.45;184584;1235;44536;-81
2023/07/22 13:16:36;;;;;;;2.00;1.80;;;;;;;24.02;46.89;100036.70;184340;1234;59827;-82
2023/07/22 13:20:38;;;;;;;3.00;2.00;;;;;;;24.24;47.78;100035.54;185000;1234;45856;-82
2023/07/22 13:24:40;;;;;;;3.90;2.00;;;;;;;24.60;47.12;100032.39;184747;1234;44589;-82
2023/07/22 13:28:42;;;;;;;4.50;2.20;;;;;;;24.74;46.29;100024.84;185161;1234;46085;-83
2023/07/22 13:32:44;;;;;;;2.90;1.90;;;;;;;24.33;46.71;100031.86;185037;1234;44673;-82
2023/07/22 13:36:46;;;;;;;2.90;2.00;;;;;;;24.31;47.11;100023.30;184903;1237;57777;-82
2023/07/22 13:40:49;;;;;;;4.80;1.20;;;;;;;24.54;46.79;100022.75;184952;1233;46033;-82
2023/07/22 13:44:51;;;;;;;2.10;1.80;;;;;;;24.74;45.61;100022.55;184965;1236;44000;-82
2023/07/22 13:48:53;;;;;;;3.20;1.70;;;;;;;24.49;45.81;100020.79;184702;1235;45969;-82
2023/07/22 13:52:56;;;;;;;2.60;2.00;;;;;;;24.55;46.26;100016.38;184620;1236;44010;-82
2023/07/22 13:56:58;;;;;;;4.00;1.90;;;;;;;24.51;46.01;100018.30;185064;1235;60056;-81
2023/07/22 14:01:00;;;;;;;3.30;2.40;;;;;;;24.53;46.76;100017.65;184894;1233;44674;-82
2023/07/22 14:05:05;;;;;;;6.60;2.70;;;;;;;24.50;46.84;100015.17;185314;1235;45994;-82
2023/07/22 14:09:07;;;;;;;2.20;1.50;;;;;;;24.54;46.18;100017.40;185007;1235;46004;-83
2023/07/22 14:13:09;;;;;;;3.70;2.40;;;;;;;24.64;45.80;100016.95;185097;1232;44460;-83
2023/07/22 14:17:12;;;;;;;2.50;2.10;;;;;;;24.83;45.41;100013.08;185179;1236;59867;-83
2023/07/22 14:21:14;;;;;;;4.10;2.40;;;;;;;24.96;45.89;100005.52;185065;1234;43991;-83
2023/07/22 14:25:16;;;;;;;2.10;1.50;;;;;;;25.05;45.54;100003.65;184951;1234;43901;-83
2023/07/22 14:29:18;;;;;;;3.90;1.80;;;;;;;25.12;45.21;99989.46;185330;1236;46017;-83
2023/07/22 14:33:20;;;;;;;2.40;1.20;;;;;;;25.14;44.99;99988.06;185096;1234;46475;-83
2023/07/22 14:37:23;;;;;;;2.90;2.40;;;;;;;25.12;44.47;99989.58;185006;1235;58764;-83
2023/07/22 14:41:25;;;;;;;2.10;1.90;;;;;;;25.06;44.89;99987.83;185380;1233;44769;-82
2023/07/22 14:45:27;;;;;;;2.30;1.70;;;;;;;25.17;45.39;99983.04;185080;1235;45863;-83
2023/07/22 14:49:29;;;;;;;3.50;1.60;;;;;;;25.55;44.85;99971.41;185014;1236;45844;-83
2023/07/22 14:53:31;;;;;;;1.90;1.50;;;;;;;25.81;43.72;99980.61;184936;1234;43774;-83
2023/07/22 14:57:34;;;;;;;3.70;2.10;;;;;;;25.56;44.13;99977.09;185321;1235;58886;-83
2023/07/22 15:01:37;;;;;;;4.00;1.90;;;;;;;25.29;44.18;99976.02;185165;1235;44896;-83
2023/07/22 15:05:40;;;;;;;2.20;1.10;;;;;;;24.75;44.29;99985.75;184927;1235;46091;-83
2023/07/22 15:09:42;;;;;;;1.30;1.10;;;;;;;24.41;44.11;99989.30;184872;1235;45956;-83
2023/07/22 15:13:44;;;;;;;2.80;2.10;;;;;;;24.42;44.93;99989.32;184623;1235;43940;-83
2023/07/22 15:17:46;;;;;;;3.00;1.20;;;;;;;24.82;45.28;99988.14;184801;1236;57797;-83
2023/07/22 15:21:48;;;;;;;1.50;1.20;;;;;;;25.26;44.01;99974.40;184981;1233;46020;-83
2023/07/22 15:25:50;;;;;;;3.10;1.40;;;;;;;25.47;43.68;99972.91;184887;1235;46104;-83
2023/07/22 15:29:52;;;;;;;2.80;1.70;;;;;;;25.63;43.32;99972.22;184889;1233;43994;-82
2023/07/22 15:33:55;;;;;;;1.70;1.50;;;;;;;25.44;42.75;99968.38;184909;1233;45978;-82
2023/07/22 15:37:57;;;;;;;3.60;2.40;;;;;;;25.16;42.94;99979.20;185391;1234;58038;-82
2023/07/22 15:41:59;;;;;;;2.00;1.50;;;;;;;25.23;44.23;99981.27;184894;1233;44118;-82
2023/07/22 15:46:01;;;;;;;3.00;2.00;;;;;;;25.36;43.75;99975.54;185137;1232;46027;-81
2023/07/22 15:50:04;;;;;;;2.10;1.40;;;;;;;25.44;43.42;99972.48;185578;1236;44982;-81
2023/07/22 15:54:07;;;;;;;2.70;1.20;;;;;;;25.29;44.01;99971.15;185287;1233;46104;-82
2023/07/22 15:58:09;;;;;;;41.90;8.20;;;;;;;25.45;43.47;99972.57;185536;1235;58472;-82
2023/07/22 16:02:13;;;;;;;4.30;1.70;;;;;;;25.70;43.38;99977.17;185443;1234;45718;-82
2023/07/22 16:06:16;;;;;;;1.60;1.30;;;;;;;25.66;42.68;99977.19;185552;1236;45929;-82
2023/07/22 16:10:34;;;;;;;3.90;2.20;;;;;;;25.20;43.32;99972.98;185522;1234;46020;-82
2023/07/22 16:14:36;;;;;;;2.90;1.60;;;;;;;25.06;43.41;99972.59;185478;1234;43721;-82
2023/07/22 16:18:38;;;;;;;1.60;1.40;;;;;;;25.05;43.64;99970.71;185547;1236;58659;-82
2023/07/22 16:22:41;;;;;;;1.80;1.50;;;;;;;25.13;43.43;99972.67;185595;1233;45879;-82
2023/07/22 16:26:43;;;;;;;2.90;1.50;;;;;;;25.29;43.77;99972.98;184044;1233;43904;-87
2023/07/22 16:30:46;;;;;;;3.30;1.80;;;;;;;25.46;43.75;99972.30;183660;1233;45958;-87
2023/07/22 16:34:48;;;;;;;2.90;1.70;;;;;;;25.55;42.94;99972.05;183799;1235;46059;-88
2023/07/22 16:38:50;;;;;;;2.50;1.20;;;;;;;25.26;43.09;99964.48;183026;1234;59353;-88
2023/07/22 16:42:52;;;;;;;4.20;1.90;;;;;;;25.10;43.57;99965.96;182786;1234;46027;-87
2023/07/22 16:46:54;;;;;;;5.10;2.10;;;;;;;24.81;43.62;99967.83;183152;1235;45924;-87
2023/07/22 16:50:57;;;;;;;4.00;1.60;;;;;;;24.52;43.91;99971.04;182193;1237;45935;-87
2023/07/22 16:54:59;;;;;;;2.60;1.70;;;;;;;24.34;44.19;99975.52;182785;1234;45948;-87
2023/07/22 16:59:01;;;;;;;3.90;2.10;;;;;;;24.17;44.48;99974.23;183328;1233;59394;-87
2023/07/22 17:03:04;;;;;;;2.80;2.00;;;;;;;24.08;45.07;99972.48;183381;1234;45972;-87
2023/07/22 17:07:08;;;;;;;5.40;2.20;;;;;;;24.11;45.33;99971.32;183104;1234;46011;-87
2023/07/22 17:11:10;;;;;;;5.00;1.60;;;;;;;24.10;45.47;99965.42;182887;1234;46460;-87
2023/07/22 17:15:14;;;;;;;4.90;1.60;;;;;;;24.21;45.40;99966.55;183052;1232;45930;-87
2023/07/22 17:19:16;;;;;;;4.40;1.80;;;;;;;24.15;45.30;99971.16;183246;1234;58823;-87
2023/07/22 17:23:21;;;;;;;2.90;1.20;;;;;;;23.87;45.97;99974.71;182386;1235;46378;-86
2023/07/22 17:27:23;;;;;;;1.60;1.20;;;;;;;23.54;46.92;99974.54;182515;1237;45960;-86
2023/07/22 17:31:25;;;;;;;3.00;2.10;;;;;;;23.29;47.45;99978.91;183994;1232;46009;-87
2023/07/22 17:35:27;;;;;;;3.10;2.00;;;;;;;23.04;48.48;99980.11;182939;1234;45953;-86
2023/07/22 17:39:30;;;;;;;4.30;2.10;;;;;;;22.83;48.96;99974.34;182495;1237;58646;-86
2023/07/22 17:43:32;;;;;;;7.50;2.00;;;;;;;22.68;49.47;99973.66;183338;1235;45959;-87
2023/07/22 17:47:34;;;;;;;18.80;4.90;;;;;;;22.59;49.79;99976.42;184202;1234;44091;-87
2023/07/22 17:51:36;;;;;;;9.60;2.10;;;;;;;22.53;50.30;99975.61;183431;1237;45956;-87
2023/07/22 17:55:38;;;;;;;3.20;1.90;;;;;;;22.45;50.53;99976.79;182879;1236;46131;-86
2023/07/22 17:59:41;;;;;;;2.30;1.40;;;;;;;22.33;51.60;99982.50;183095;1235;57358;-87
2023/07/22 18:03:43;;;;;;;2.50;1.40;;;;;;;22.26;52.00;99980.42;182808;1235;45966;-87
2023/07/22 18:07:45;;;;;;;2.40;1.60;;;;;;;22.20;52.47;99978.94;182387;1237;46059;-87
2023/07/22 18:11:47;;;;;;;8.40;3.40;;;;;;;22.10;52.85;99978.99;183059;1237;46397;-87
2023/07/22 18:15:49;;;;;;;3.40;2.20;;;;;;;21.98;51.89;99979.13;182774;1234;46047;-86
2023/07/22 18:19:51;;;;;;;4.90;2.80;;;;;;;21.93;51.58;99979.75;182703;1234;59227;-87
2023/07/22 18:23:53;;;;;;;5.30;3.30;;;;;;;21.89;52.02;99979.52;183324;1235;46071;-87
2023/07/22 18:27:54;;;;;;;10.40;3.00;;;;;;;21.81;53.10;99979.74;182649;1234;45966;-86
2023/07/22 18:31:56;;;;;;;5.30;2.30;;;;;;;21.72;53.53;99986.31;182775;1233;46112;-87
2023/07/22 18:35:58;;;;;;;6.20;2.80;;;;;;;21.60;54.23;99987.70;182828;1235;46068;-86
2023/07/22 18:40:01;;;;;;;7.50;2.30;;;;;;;21.43;53.92;99985.41;182985;1233;59323;-86